sensor_id;sensor_type;location;lat;lon;timestamp;pressure;altitude;pressure_sealevel;temperature;humidity
7760;BME280;3924;48.830;9.262;2024-03-02T00:00:12;97472.69;;;6.39;87.90
7760;BME280;3924;48.830;9.262;2024-03-02T00:02:46;97470.50;;;6.41;88.02
7760;BME280;3924;48.830;9.262;2024-03-02T00:05:18;97473.69;;;6.43;87.74
7760;BME280;3924;48.830;9.262;2024-03-02T00:07:47;97475.28;;;6.44;87.72
7760;BME280;3924;48.830;9.262;2024-03-02T00:10:37;97479.06;;;6.43;87.75
7760;BME280;3924;48.830;9.262;2024-03-02T00:13:06;97475.56;;;6.42;88.04
7760;BME280;3924;48.830;9.262;2024-03-02T00:15:45;97474.47;;;6.43;87.80
7760;BME280;3924;48.830;9.262;2024-03-02T00:18:14;97476.06;;;6.44;87.76
7760;BME280;3924;48.830;9.262;2024-03-02T00:20:42;97480.66;;;6.44;87.95
7760;BME280;3924;48.830;9.262;2024-03-02T00:23:10;97479.06;;;6.43;87.99
7760;BME280;3924;48.830;9.262;2024-03-02T00:25:41;97482.84;;;6.42;87.77
7760;BME280;3924;48.830;9.262;2024-03-02T00:28:21;97480.66;;;6.44;88.04
7760;BME280;3924;48.830;9.262;2024-03-02T00:30:58;97482.00;;;6.46;87.76
7760;BME280;3924;48.830;9.262;2024-03-02T00:33:46;97477.69;;;6.45;87.64
7760;BME280;3924;48.830;9.262;2024-03-02T00:36:15;97490.63;;;6.43;87.83
7760;BME280;3924;48.830;9.262;2024-03-02T00:38:48;97483.16;;;6.40;87.70
7760;BME280;3924;48.830;9.262;2024-03-02T00:41:19;97477.03;;;6.35;87.83
7760;BME280;3924;48.830;9.262;2024-03-02T00:44:00;97484.59;;;6.33;87.88
7760;BME280;3924;48.830;9.262;2024-03-02T00:46:29;97486.78;;;6.30;87.87
7760;BME280;3924;48.830;9.262;2024-03-02T00:49:04;97481.69;;;6.29;87.63
7760;BME280;3924;48.830;9.262;2024-03-02T00:51:33;97489.56;;;6.25;87.82
7760;BME280;3924;48.830;9.262;2024-03-02T00:54:01;97485.53;;;6.23;87.96
7760;BME280;3924;48.830;9.262;2024-03-02T00:56:32;97481.84;;;6.19;88.00
7760;BME280;3924;48.830;9.262;2024-03-02T00:58:59;97477.81;;;6.16;88.00
7760;BME280;3924;48.830;9.262;2024-03-02T01:01:26;97478.91;;;6.15;88.13
7760;BME280;3924;48.830;9.262;2024-03-02T01:03:53;97478.91;;;6.15;87.96
7760;BME280;3924;48.830;9.262;2024-03-02T01:06:19;97481.09;;;6.13;87.70
7760;BME280;3924;48.830;9.262;2024-03-02T01:08:46;97477.81;;;6.16;87.97
7760;BME280;3924;48.830;9.262;2024-03-02T01:11:17;97484.09;;;6.12;88.15
7760;BME280;3924;48.830;9.262;2024-03-02T01:13:45;97487.66;;;6.07;87.77
7760;BME280;3924;48.830;9.262;2024-03-02T01:16:13;97487.41;;;6.03;87.96
7760;BME280;3924;48.830;9.262;2024-03-02T01:18:39;97477.75;;;6.02;87.52
7760;BME280;3924;48.830;9.262;2024-03-02T01:21:06;97476.44;;;6.00;87.97
7760;BME280;3924;48.830;9.262;2024-03-02T01:23:33;97477.25;;;6.00;88.02
7760;BME280;3924;48.830;9.262;2024-03-02T01:25:59;97473.25;;;5.98;87.87
7760;BME280;3924;48.830;9.262;2024-03-02T01:28:26;97472.22;;;5.94;88.02
7760;BME280;3924;48.830;9.262;2024-03-02T01:30:53;97470.31;;;5.94;88.02
7760;BME280;3924;48.830;9.262;2024-03-02T01:33:20;97471.16;;;5.90;88.10
7760;BME280;3924;48.830;9.262;2024-03-02T01:35:47;97481.19;;;5.84;88.12
7760;BME280;3924;48.830;9.262;2024-03-02T01:38:13;97479.06;;;5.81;88.09
7760;BME280;3924;48.830;9.262;2024-03-02T01:40:41;97480.22;;;5.75;87.97
7760;BME280;3924;48.830;9.262;2024-03-02T01:43:08;97487.53;;;5.69;88.17
7760;BME280;3924;48.830;9.262;2024-03-02T01:45:35;97482.75;;;5.66;88.16
7760;BME280;3924;48.830;9.262;2024-03-02T01:48:04;97486.53;;;5.65;88.26
7760;BME280;3924;48.830;9.262;2024-03-02T01:50:32;97480.91;;;5.62;88.30
7760;BME280;3924;48.830;9.262;2024-03-02T01:52:59;97486.28;;;5.62;88.58
7760;BME280;3924;48.830;9.262;2024-03-02T01:55:26;97496.25;;;5.61;88.33
7760;BME280;3924;48.830;9.262;2024-03-02T01:57:55;97476.63;;;5.61;88.54
7760;BME280;3924;48.830;9.262;2024-03-02T02:00:22;97479.09;;;5.57;88.52
7760;BME280;3924;48.830;9.262;2024-03-02T02:02:51;97479.66;;;5.54;88.73
7760;BME280;3924;48.830;9.262;2024-03-02T02:05:18;97478.06;;;5.53;88.48
7760;BME280;3924;48.830;9.262;2024-03-02T02:07:44;97477.25;;;5.53;88.66
7760;BME280;3924;48.830;9.262;2024-03-02T02:10:11;97475.97;;;5.50;88.52
7760;BME280;3924;48.830;9.262;2024-03-02T02:12:38;97477.03;;;5.49;88.54
7760;BME280;3924;48.830;9.262;2024-03-02T02:15:22;97470.03;;;5.48;88.39
7760;BME280;3924;48.830;9.262;2024-03-02T02:17:49;97470.63;;;5.45;88.54
7760;BME280;3924;48.830;9.262;2024-03-02T02:20:15;97465.00;;;5.41;88.71
7760;BME280;3924;48.830;9.262;2024-03-02T02:25:37;97460.44;;;5.42;88.58
7760;BME280;3924;48.830;9.262;2024-03-02T02:28:04;97462.31;;;5.41;88.84
7760;BME280;3924;48.830;9.262;2024-03-02T02:30:32;97452.97;;;5.39;88.78
7760;BME280;3924;48.830;9.262;2024-03-02T02:32:59;97455.44;;;5.35;88.36
7760;BME280;3924;48.830;9.262;2024-03-02T02:35:26;97460.56;;;5.32;88.58
7760;BME280;3924;48.830;9.262;2024-03-02T02:37:54;97453.09;;;5.29;88.85
7760;BME280;3924;48.830;9.262;2024-03-02T02:40:21;97447.97;;;5.27;88.46
7760;BME280;3924;48.830;9.262;2024-03-02T02:42:48;97447.19;;;5.27;88.97
7760;BME280;3924;48.830;9.262;2024-03-02T02:45:14;97443.97;;;5.25;88.87
7760;BME280;3924;48.830;9.262;2024-03-02T02:47:42;97440.25;;;5.20;88.82
7760;BME280;3924;48.830;9.262;2024-03-02T02:50:10;97435.50;;;5.12;88.89
7760;BME280;3924;48.830;9.262;2024-03-02T02:52:38;97437.97;;;5.09;88.98
7760;BME280;3924;48.830;9.262;2024-03-02T02:55:08;97431.81;;;5.08;88.97
7760;BME280;3924;48.830;9.262;2024-03-02T02:57:35;97435.56;;;5.07;89.12
7760;BME280;3924;48.830;9.262;2024-03-02T03:00:09;97427.28;;;5.04;89.15
7760;BME280;3924;48.830;9.262;2024-03-02T03:02:44;97432.41;;;5.00;89.11
7760;BME280;3924;48.830;9.262;2024-03-02T03:05:13;97429.22;;;4.98;88.89
7760;BME280;3924;48.830;9.262;2024-03-02T03:07:41;97432.97;;;4.97;89.02
7760;BME280;3924;48.830;9.262;2024-03-02T03:10:08;97438.66;;;4.96;88.81
7760;BME280;3924;48.830;9.262;2024-03-02T03:12:34;97430.34;;;4.92;88.83
7760;BME280;3924;48.830;9.262;2024-03-02T03:15:03;97435.25;;;4.85;89.02
7760;BME280;3924;48.830;9.262;2024-03-02T03:17:31;97442.00;;;4.82;88.88
7760;BME280;3924;48.830;9.262;2024-03-02T03:19:57;97435.28;;;4.80;89.08
7760;BME280;3924;48.830;9.262;2024-03-02T03:22:24;97437.75;;;4.76;89.11
7760;BME280;3924;48.830;9.262;2024-03-02T03:24:50;97447.69;;;4.76;89.16
7760;BME280;3924;48.830;9.262;2024-03-02T03:27:17;97447.69;;;4.76;89.13
7760;BME280;3924;48.830;9.262;2024-03-02T03:29:43;97443.91;;;4.77;89.13
7760;BME280;3924;48.830;9.262;2024-03-02T03:32:10;97439.91;;;4.74;89.28
7760;BME280;3924;48.830;9.262;2024-03-02T03:34:36;97442.88;;;4.73;89.09
7760;BME280;3924;48.830;9.262;2024-03-02T03:37:03;97433.75;;;4.74;89.25
7760;BME280;3924;48.830;9.262;2024-03-02T03:39:30;97435.09;;;4.71;89.15
7760;BME280;3924;48.830;9.262;2024-03-02T03:41:56;97446.13;;;4.70;89.27
7760;BME280;3924;48.830;9.262;2024-03-02T03:44:23;97438.06;;;4.70;89.47
7760;BME280;3924;48.830;9.262;2024-03-02T03:46:50;97444.81;;;4.67;89.16
7760;BME280;3924;48.830;9.262;2024-03-02T03:49:17;97441.88;;;4.63;89.04
7760;BME280;3924;48.830;9.262;2024-03-02T03:51:43;97444.34;;;4.60;89.40
7760;BME280;3924;48.830;9.262;2024-03-02T03:54:10;97441.91;;;4.58;89.44
7760;BME280;3924;48.830;9.262;2024-03-02T03:56:37;97438.44;;;4.58;89.28
7760;BME280;3924;48.830;9.262;2024-03-02T03:59:04;97436.84;;;4.57;89.31
7760;BME280;3924;48.830;9.262;2024-03-02T04:01:31;97446.25;;;4.54;89.41
7760;BME280;3924;48.830;9.262;2024-03-02T04:04:01;97444.41;;;4.50;89.62
7760;BME280;3924;48.830;9.262;2024-03-02T04:06:30;97442.81;;;4.49;89.61
7760;BME280;3924;48.830;9.262;2024-03-02T04:08:57;97440.41;;;4.47;89.36
7760;BME280;3924;48.830;9.262;2024-03-02T04:11:23;97442.00;;;4.48;89.54
7760;BME280;3924;48.830;9.262;2024-03-02T04:13:50;97443.91;;;4.48;89.33
7760;BME280;3924;48.830;9.262;2024-03-02T04:16:17;97442.00;;;4.48;89.51
7760;BME280;3924;48.830;9.262;2024-03-02T04:18:43;97442.56;;;4.45;89.36
7760;BME280;3924;48.830;9.262;2024-03-02T04:21:10;97446.31;;;4.44;89.51
7760;BME280;3924;48.830;9.262;2024-03-02T04:23:37;97445.53;;;4.44;89.42
7760;BME280;3924;48.830;9.262;2024-03-02T04:26:04;97444.72;;;4.43;89.33
7760;BME280;3924;48.830;9.262;2024-03-02T04:28:31;97446.09;;;4.41;89.24
7760;BME280;3924;48.830;9.262;2024-03-02T04:30:57;97446.94;;;4.36;89.24
7760;BME280;3924;48.830;9.262;2024-03-02T04:33:24;97453.38;;;4.35;89.68
7760;BME280;3924;48.830;9.262;2024-03-02T04:35:51;97442.13;;;4.33;89.36
7760;BME280;3924;48.830;9.262;2024-03-02T04:38:17;97442.66;;;4.35;89.58
7760;BME280;3924;48.830;9.262;2024-03-02T04:40:44;97439.16;;;4.34;89.68
7760;BME280;3924;48.830;9.262;2024-03-02T04:43:11;97442.66;;;4.35;89.71
7760;BME280;3924;48.830;9.262;2024-03-02T04:45:41;97441.06;;;4.34;89.60
7760;BME280;3924;48.830;9.262;2024-03-02T04:48:08;97438.38;;;4.34;89.62
7760;BME280;3924;48.830;9.262;2024-03-02T04:50:34;97446.41;;;4.34;89.26
7760;BME280;3924;48.830;9.262;2024-03-02T04:53:01;97446.41;;;4.34;89.44
7760;BME280;3924;48.830;9.262;2024-03-02T04:55:27;97444.00;;;4.32;89.58
7760;BME280;3924;48.830;9.262;2024-03-02T04:57:54;97441.88;;;4.29;89.27
7760;BME280;3924;48.830;9.262;2024-03-02T05:00:23;97453.97;;;4.27;89.33
7760;BME280;3924;48.830;9.262;2024-03-02T05:02:50;97449.69;;;4.26;89.70
7760;BME280;3924;48.830;9.262;2024-03-02T05:05:17;97452.38;;;4.26;89.58
7760;BME280;3924;48.830;9.262;2024-03-02T05:07:44;97448.88;;;4.25;89.46
7760;BME280;3924;48.830;9.262;2024-03-02T05:10:11;97450.25;;;4.23;89.34
7760;BME280;3924;48.830;9.262;2024-03-02T05:12:41;97447.56;;;4.23;89.61
7760;BME280;3924;48.830;9.262;2024-03-02T05:15:14;97456.91;;;4.25;89.51
7760;BME280;3924;48.830;9.262;2024-03-02T05:17:42;97455.06;;;4.26;89.56
7760;BME280;3924;48.830;9.262;2024-03-02T05:20:11;97452.88;;;4.28;89.52
7760;BME280;3924;48.830;9.262;2024-03-02T05:22:38;97447.28;;;4.24;89.65
7760;BME280;3924;48.830;9.262;2024-03-02T05:25:06;97449.69;;;4.26;89.48
7760;BME280;3924;48.830;9.262;2024-03-02T05:27:33;97444.06;;;4.22;89.23
7760;BME280;3924;48.830;9.262;2024-03-02T05:30:00;97450.81;;;4.20;89.58
7760;BME280;3924;48.830;9.262;2024-03-02T05:32:27;97451.88;;;4.19;89.79
7760;BME280;3924;48.830;9.262;2024-03-02T05:34:54;97456.16;;;4.20;89.73
7760;BME280;3924;48.830;9.262;2024-03-02T05:37:21;97462.63;;;4.19;89.74
7760;BME280;3924;48.830;9.262;2024-03-02T05:39:47;97454.56;;;4.19;89.41
7760;BME280;3924;48.830;9.262;2024-03-02T05:42:14;97469.03;;;4.18;89.40
7760;BME280;3924;48.830;9.262;2024-03-02T05:44:43;97457.78;;;4.16;89.42
7760;BME280;3924;48.830;9.262;2024-03-02T05:47:09;97453.50;;;4.15;89.67
7760;BME280;3924;48.830;9.262;2024-03-02T05:49:36;97458.38;;;4.13;89.54
7760;BME280;3924;48.830;9.262;2024-03-02T05:52:02;97465.59;;;4.12;89.71
7760;BME280;3924;48.830;9.262;2024-03-02T05:54:29;97470.97;;;4.12;89.67
7760;BME280;3924;48.830;9.262;2024-03-02T05:56:56;97465.34;;;4.08;89.69
7760;BME280;3924;48.830;9.262;2024-03-02T05:59:23;97468.59;;;4.05;89.69
7760;BME280;3924;48.830;9.262;2024-03-02T06:01:49;97464.28;;;4.04;89.77
7760;BME280;3924;48.830;9.262;2024-03-02T06:04:19;97465.38;;;4.03;89.96
7760;BME280;3924;48.830;9.262;2024-03-02T06:06:45;97475.84;;;4.05;89.83
7760;BME280;3924;48.830;9.262;2024-03-02T06:09:12;97477.44;;;4.06;89.75
7760;BME280;3924;48.830;9.262;2024-03-02T06:11:40;97468.06;;;4.03;89.56
7760;BME280;3924;48.830;9.262;2024-03-02T06:14:08;97482.53;;;4.02;89.73
7760;BME280;3924;48.830;9.262;2024-03-02T06:16:35;97479.56;;;4.04;90.14
7760;BME280;3924;48.830;9.262;2024-03-02T06:19:02;97478.25;;;4.06;89.83
7760;BME280;3924;48.830;9.262;2024-03-02T06:21:29;97479.56;;;4.09;89.81
7760;BME280;3924;48.830;9.262;2024-03-02T06:23:56;97481.44;;;4.08;89.83
7760;BME280;3924;48.830;9.262;2024-03-02T06:26:23;97480.88;;;4.11;89.59
7760;BME280;3924;48.830;9.262;2024-03-02T06:28:52;97480.88;;;4.11;89.88
7760;BME280;3924;48.830;9.262;2024-03-02T06:31:18;97487.28;;;4.16;89.79
7760;BME280;3924;48.830;9.262;2024-03-02T06:33:45;97486.47;;;4.20;89.54
7760;BME280;3924;48.830;9.262;2024-03-02T06:36:12;97480.81;;;4.22;89.51
7760;BME280;3924;48.830;9.262;2024-03-02T06:38:39;97486.69;;;4.24;89.41
7760;BME280;3924;48.830;9.262;2024-03-02T06:41:09;97490.72;;;4.26;89.62
7760;BME280;3924;48.830;9.262;2024-03-02T06:43:35;97481.31;;;4.29;89.72
7760;BME280;3924;48.830;9.262;2024-03-02T06:46:02;97492.53;;;4.36;89.48
7760;BME280;3924;48.830;9.262;2024-03-02T06:48:29;97489.25;;;4.44;89.50
7760;BME280;3924;48.830;9.262;2024-03-02T06:50:56;97490.81;;;4.50;89.85
7760;BME280;3924;48.830;9.262;2024-03-02T06:53:24;97491.59;;;4.56;89.32
7760;BME280;3924;48.830;9.262;2024-03-02T06:55:51;97484.84;;;4.58;89.37
7760;BME280;3924;48.830;9.262;2024-03-02T06:58:18;97488.59;;;4.62;89.55
7760;BME280;3924;48.830;9.262;2024-03-02T07:00:44;97491.75;;;4.70;89.53
7760;BME280;3924;48.830;9.262;2024-03-02T07:03:11;97494.91;;;4.77;89.33
7760;BME280;3924;48.830;9.262;2024-03-02T07:05:38;97497.28;;;4.83;89.06
7760;BME280;3924;48.830;9.262;2024-03-02T07:08:05;97504.50;;;4.88;89.28
7760;BME280;3924;48.830;9.262;2024-03-02T07:10:32;97500.66;;;4.94;89.27
7760;BME280;3924;48.830;9.262;2024-03-02T07:12:59;97498.81;;;4.94;88.93
7760;BME280;3924;48.830;9.262;2024-03-02T07:15:26;97499.28;;;5.02;89.10
7760;BME280;3924;48.830;9.262;2024-03-02T07:18:11;97490.31;;;5.11;88.96
7760;BME280;3924;48.830;9.262;2024-03-02T07:20:38;97479.50;;;5.21;89.20
7760;BME280;3924;48.830;9.262;2024-03-02T07:23:05;97497.59;;;5.35;89.14
7760;BME280;3924;48.830;9.262;2024-03-02T07:25:32;97494.47;;;5.52;88.69
7760;BME280;3924;48.830;9.262;2024-03-02T07:28:02;97495.09;;;5.67;88.43
7760;BME280;3924;48.830;9.262;2024-03-02T07:30:29;97497.03;;;5.86;88.51
7760;BME280;3924;48.830;9.262;2024-03-02T07:32:59;97498.25;;;5.98;88.22
7760;BME280;3924;48.830;9.262;2024-03-02T07:35:26;97498.34;;;6.12;88.04
7760;BME280;3924;48.830;9.262;2024-03-02T07:37:54;97493.84;;;6.26;88.00
7760;BME280;3924;48.830;9.262;2024-03-02T07:40:20;97495.22;;;6.43;87.90
7760;BME280;3924;48.830;9.262;2024-03-02T07:42:47;97489.91;;;6.56;87.66
7760;BME280;3924;48.830;9.262;2024-03-02T07:45:13;97502.31;;;6.71;87.40
7760;BME280;3924;48.830;9.262;2024-03-02T07:47:40;97496.78;;;6.81;87.49
7760;BME280;3924;48.830;9.262;2024-03-02T07:50:07;97497.22;;;6.89;87.32
7760;BME280;3924;48.830;9.262;2024-03-02T07:52:34;97499.91;;;6.89;86.98
7760;BME280;3924;48.830;9.262;2024-03-02T07:55:01;97500.47;;;6.85;87.32
7760;BME280;3924;48.830;9.262;2024-03-02T07:57:27;97500.28;;;6.82;87.15
7760;BME280;3924;48.830;9.262;2024-03-02T07:59:54;97504.38;;;6.79;87.31
7760;BME280;3924;48.830;9.262;2024-03-02T08:02:20;97506.97;;;6.84;87.27
7760;BME280;3924;48.830;9.262;2024-03-02T08:04:48;97498.38;;;6.82;87.14
7760;BME280;3924;48.830;9.262;2024-03-02T08:07:14;97495.69;;;6.82;87.36
7760;BME280;3924;48.830;9.262;2024-03-02T08:09:41;97502.66;;;6.83;87.16
7760;BME280;3924;48.830;9.262;2024-03-02T08:12:07;97498.09;;;6.84;87.15
7760;BME280;3924;48.830;9.262;2024-03-02T08:14:34;97497.28;;;6.83;87.08
7760;BME280;3924;48.830;9.262;2024-03-02T08:17:01;97492.69;;;6.84;87.16
7760;BME280;3924;48.830;9.262;2024-03-02T08:19:28;97496.97;;;6.85;87.29
7760;BME280;3924;48.830;9.262;2024-03-02T08:21:55;97499.41;;;6.87;87.28
7760;BME280;3924;48.830;9.262;2024-03-02T08:24:22;97493.72;;;6.88;87.16
7760;BME280;3924;48.830;9.262;2024-03-02T08:26:48;97488.81;;;6.90;87.24
7760;BME280;3924;48.830;9.262;2024-03-02T08:29:15;97487.94;;;6.95;87.07
7760;BME280;3924;48.830;9.262;2024-03-02T08:31:41;97487.03;;;6.99;87.00
7760;BME280;3924;48.830;9.262;2024-03-02T08:34:08;97484.56;;;7.03;87.05
7760;BME280;3924;48.830;9.262;2024-03-02T08:36:36;97482.38;;;7.05;86.86
7760;BME280;3924;48.830;9.262;2024-03-02T08:39:03;97485.00;;;7.10;86.92
7760;BME280;3924;48.830;9.262;2024-03-02T08:41:29;97487.59;;;7.15;86.76
7760;BME280;3924;48.830;9.262;2024-03-02T08:43:56;97485.09;;;7.19;86.84
7760;BME280;3924;48.830;9.262;2024-03-02T08:46:23;97486.41;;;7.21;86.93
7760;BME280;3924;48.830;9.262;2024-03-02T08:48:49;97485.81;;;7.24;86.55
7760;BME280;3924;48.830;9.262;2024-03-02T08:51:16;97491.13;;;7.29;86.59
7760;BME280;3924;48.830;9.262;2024-03-02T08:53:42;97494.41;;;7.40;86.31
7760;BME280;3924;48.830;9.262;2024-03-02T08:56:10;97488.53;;;7.52;86.26
7760;BME280;3924;48.830;9.262;2024-03-02T08:58:36;97484.84;;;7.61;86.34
7760;BME280;3924;48.830;9.262;2024-03-02T09:01:03;97479.56;;;7.70;85.97
7760;BME280;3924;48.830;9.262;2024-03-02T09:03:30;97479.88;;;7.82;85.94
7760;BME280;3924;48.830;9.262;2024-03-02T09:05:59;97481.72;;;7.95;85.87
7760;BME280;3924;48.830;9.262;2024-03-02T09:08:26;97490.09;;;8.08;85.64
7760;BME280;3924;48.830;9.262;2024-03-02T09:10:53;97485.09;;;8.15;85.21
7760;BME280;3924;48.830;9.262;2024-03-02T09:13:19;97481.41;;;8.25;84.90
7760;BME280;3924;48.830;9.262;2024-03-02T09:15:46;97475.75;;;8.35;85.07
7760;BME280;3924;48.830;9.262;2024-03-02T09:18:13;97480.66;;;8.46;85.01
7760;BME280;3924;48.830;9.262;2024-03-02T09:20:42;97475.81;;;8.57;84.89
7760;BME280;3924;48.830;9.262;2024-03-02T09:23:08;97469.75;;;8.74;84.53
7760;BME280;3924;48.830;9.262;2024-03-02T09:25:35;97476.47;;;8.85;84.36
7760;BME280;3924;48.830;9.262;2024-03-02T09:28:03;97474.81;;;8.98;84.44
7760;BME280;3924;48.830;9.262;2024-03-02T09:30:30;97467.75;;;9.11;84.00
7760;BME280;3924;48.830;9.262;2024-03-02T09:32:56;97459.38;;;9.21;83.60
7760;BME280;3924;48.830;9.262;2024-03-02T09:35:43;97461.19;;;9.34;83.54
7760;BME280;3924;48.830;9.262;2024-03-02T09:38:09;97466.16;;;9.41;83.16
7760;BME280;3924;48.830;9.262;2024-03-02T09:40:36;97465.06;;;9.50;82.92
7760;BME280;3924;48.830;9.262;2024-03-02T09:43:02;97462.06;;;9.60;83.00
7760;BME280;3924;48.830;9.262;2024-03-02T09:45:30;97462.28;;;9.73;82.54
7760;BME280;3924;48.830;9.262;2024-03-02T09:47:56;97456.94;;;9.90;82.20
7760;BME280;3924;48.830;9.262;2024-03-02T09:50:23;97449.63;;;9.99;81.70
7760;BME280;3924;48.830;9.262;2024-03-02T09:52:50;97456.47;;;10.14;81.60
7760;BME280;3924;48.830;9.262;2024-03-02T09:55:17;97439.97;;;10.24;81.45
7760;BME280;3924;48.830;9.262;2024-03-02T09:57:46;97440.16;;;10.36;80.94
7760;BME280;3924;48.830;9.262;2024-03-02T10:00:13;97440.28;;;10.49;80.55
7760;BME280;3924;48.830;9.262;2024-03-02T10:02:42;97452.53;;;10.63;80.26
7760;BME280;3924;48.830;9.262;2024-03-02T10:05:09;97451.44;;;10.73;79.96
7760;BME280;3924;48.830;9.262;2024-03-02T10:07:35;97448.06;;;10.93;79.52
7760;BME280;3924;48.830;9.262;2024-03-02T10:10:15;97438.59;;;11.08;79.08
7760;BME280;3924;48.830;9.262;2024-03-02T10:12:42;97441.13;;;11.22;78.76
7760;BME280;3924;48.830;9.262;2024-03-02T10:15:09;97430.06;;;11.36;78.42
7760;BME280;3924;48.830;9.262;2024-03-02T10:17:36;97430.66;;;11.50;77.87
7760;BME280;3924;48.830;9.262;2024-03-02T10:20:22;97433.75;;;11.69;77.60
7760;BME280;3924;48.830;9.262;2024-03-02T10:22:52;97430.50;;;11.85;77.13
7760;BME280;3924;48.830;9.262;2024-03-02T10:25:32;97426.22;;;12.04;76.44
7760;BME280;3924;48.830;9.262;2024-03-02T10:28:16;97418.28;;;12.20;76.23
7760;BME280;3924;48.830;9.262;2024-03-02T10:30:43;97422.19;;;12.31;75.96
7760;BME280;3924;48.830;9.262;2024-03-02T10:33:09;97417.97;;;12.43;75.38
7760;BME280;3924;48.830;9.262;2024-03-02T10:35:38;97418.22;;;12.50;74.81
7760;BME280;3924;48.830;9.262;2024-03-02T10:38:05;97413.94;;;12.61;74.48
7760;BME280;3924;48.830;9.262;2024-03-02T10:40:32;97421.72;;;12.71;74.12
7760;BME280;3924;48.830;9.262;2024-03-02T10:43:01;97419.50;;;12.85;74.02
7760;BME280;3924;48.830;9.262;2024-03-02T10:45:31;97417.22;;;12.87;73.31
7760;BME280;3924;48.830;9.262;2024-03-02T10:47:58;97408.41;;;13.03;73.03
7760;BME280;3924;48.830;9.262;2024-03-02T10:50:26;97404.13;;;13.14;72.64
7760;BME280;3924;48.830;9.262;2024-03-02T10:52:53;97396.81;;;13.27;72.20
7760;BME280;3924;48.830;9.262;2024-03-02T10:55:19;97393.53;;;13.33;71.89
7760;BME280;3924;48.830;9.262;2024-03-02T10:57:54;97396.25;;;13.33;71.35
7760;BME280;3924;48.830;9.262;2024-03-02T11:00:25;97391.06;;;13.40;71.33
7760;BME280;3924;48.830;9.262;2024-03-02T11:03:03;97388.78;;;13.43;70.92
7760;BME280;3924;48.830;9.262;2024-03-02T11:05:36;97383.34;;;13.55;70.50
7760;BME280;3924;48.830;9.262;2024-03-02T11:08:07;97382.53;;;13.66;70.03
7760;BME280;3924;48.830;9.262;2024-03-02T11:10:37;97376.41;;;13.69;69.50
7760;BME280;3924;48.830;9.262;2024-03-02T11:13:12;97372.19;;;13.84;69.50
7760;BME280;3924;48.830;9.262;2024-03-02T11:15:40;97361.47;;;14.04;68.93
7760;BME280;3924;48.830;9.262;2024-03-02T11:18:10;97367.34;;;14.18;68.50
7760;BME280;3924;48.830;9.262;2024-03-02T11:20:39;97355.56;;;14.14;67.95
7760;BME280;3924;48.830;9.262;2024-03-02T11:23:08;97362.44;;;14.23;67.86
7760;BME280;3924;48.830;9.262;2024-03-02T11:25:35;97347.72;;;14.40;67.12
7760;BME280;3924;48.830;9.262;2024-03-02T11:28:04;97346.31;;;14.59;66.43
7760;BME280;3924;48.830;9.262;2024-03-02T11:33:06;97341.50;;;14.68;65.90
7760;BME280;3924;48.830;9.262;2024-03-02T11:35:42;97342.19;;;14.65;65.76
7760;BME280;3924;48.830;9.262;2024-03-02T11:38:10;97325.41;;;14.63;65.60
7760;BME280;3924;48.830;9.262;2024-03-02T11:40:39;97323.03;;;14.77;65.13
7760;BME280;3924;48.830;9.262;2024-03-02T11:43:06;97320.50;;;14.84;64.57
7760;BME280;3924;48.830;9.262;2024-03-02T11:45:35;97313.47;;;14.83;64.59
7760;BME280;3924;48.830;9.262;2024-03-02T11:48:06;97319.72;;;14.99;64.02
7760;BME280;3924;48.830;9.262;2024-03-02T11:50:39;97316.19;;;15.15;63.51
7760;BME280;3924;48.830;9.262;2024-03-02T11:53:13;97302.34;;;15.23;63.22
7760;BME280;3924;48.830;9.262;2024-03-02T11:55:40;97305.75;;;15.36;62.45
7760;BME280;3924;48.830;9.262;2024-03-02T11:58:07;97296.25;;;15.46;62.60
7760;BME280;3924;48.830;9.262;2024-03-02T12:00:34;97294.91;;;15.55;62.11
7760;BME280;3924;48.830;9.262;2024-03-02T12:05:31;97282.88;;;15.76;60.94
7760;BME280;3924;48.830;9.262;2024-03-02T12:07:59;97271.97;;;15.76;60.91
7760;BME280;3924;48.830;9.262;2024-03-02T12:10:26;97273.53;;;15.77;60.68
7760;BME280;3924;48.830;9.262;2024-03-02T12:13:03;97266.34;;;15.69;60.71
7760;BME280;3924;48.830;9.262;2024-03-02T12:15:34;97272.78;;;15.60;60.72
7760;BME280;3924;48.830;9.262;2024-03-02T12:18:04;97271.66;;;15.62;60.31
7760;BME280;3924;48.830;9.262;2024-03-02T12:20:32;97265.28;;;15.57;60.24
7760;BME280;3924;48.830;9.262;2024-03-02T12:23:00;97267.91;;;15.70;59.91
7760;BME280;3924;48.830;9.262;2024-03-02T12:25:28;97254.13;;;15.82;59.31
7760;BME280;3924;48.830;9.262;2024-03-02T12:27:56;97258.16;;;15.88;59.12
7760;BME280;3924;48.830;9.262;2024-03-02T12:30:23;97257.00;;;16.08;58.52
7760;BME280;3924;48.830;9.262;2024-03-02T12:32:50;97252.47;;;16.16;58.25
7760;BME280;3924;48.830;9.262;2024-03-02T12:35:17;97243.53;;;16.19;57.83
7760;BME280;3924;48.830;9.262;2024-03-02T12:37:45;97245.75;;;16.33;57.49
7760;BME280;3924;48.830;9.262;2024-03-02T12:40:13;97240.06;;;16.41;57.26
7760;BME280;3924;48.830;9.262;2024-03-02T12:42:40;97235.09;;;16.47;57.07
7760;BME280;3924;48.830;9.262;2024-03-02T12:45:08;97230.59;;;16.58;56.60
7760;BME280;3924;48.830;9.262;2024-03-02T12:47:36;97227.56;;;16.63;56.22
7760;BME280;3924;48.830;9.262;2024-03-02T12:50:08;97231.41;;;16.82;55.96
7760;BME280;3924;48.830;9.262;2024-03-02T12:52:35;97218.28;;;16.94;55.43
7760;BME280;3924;48.830;9.262;2024-03-02T12:55:04;97218.09;;;17.07;55.23
7760;BME280;3924;48.830;9.262;2024-03-02T12:57:32;97222.78;;;17.06;54.98
7760;BME280;3924;48.830;9.262;2024-03-02T13:00:03;97229.94;;;17.14;54.96
7760;BME280;3924;48.830;9.262;2024-03-02T13:02:36;97220.06;;;17.06;54.68
7760;BME280;3924;48.830;9.262;2024-03-02T13:05:03;97227.69;;;17.20;54.29
7760;BME280;3924;48.830;9.262;2024-03-02T13:07:32;97216.94;;;17.34;53.80
7760;BME280;3924;48.830;9.262;2024-03-02T13:10:00;97220.56;;;17.42;53.30
7760;BME280;3924;48.830;9.262;2024-03-02T13:12:27;97214.16;;;17.31;53.13
7760;BME280;3924;48.830;9.262;2024-03-02T13:14:54;97219.06;;;17.18;53.25
7760;BME280;3924;48.830;9.262;2024-03-02T13:17:21;97211.22;;;17.16;52.94
7760;BME280;3924;48.830;9.262;2024-03-02T13:19:58;97208.91;;;17.18;52.72
7760;BME280;3924;48.830;9.262;2024-03-02T13:22:26;97206.16;;;17.18;52.50
7760;BME280;3924;48.830;9.262;2024-03-02T13:24:53;97192.41;;;17.15;52.09
7760;BME280;3924;48.830;9.262;2024-03-02T13:27:23;97196.16;;;17.30;51.76
7760;BME280;3924;48.830;9.262;2024-03-02T13:29:50;97188.81;;;17.37;51.35
7760;BME280;3924;48.830;9.262;2024-03-02T13:32:16;97191.69;;;17.48;51.13
7760;BME280;3924;48.830;9.262;2024-03-02T13:34:43;97196.47;;;17.55;50.95
7760;BME280;3924;48.830;9.262;2024-03-02T13:37:10;97185.03;;;17.49;50.51
7760;BME280;3924;48.830;9.262;2024-03-02T13:39:37;97187.00;;;17.48;50.18
7760;BME280;3924;48.830;9.262;2024-03-02T13:42:10;97178.78;;;17.48;50.36